Time;durP1;ratioP1;P1;durP2;ratioP2;P2;SDS_P1;SDS_P2;PMS_P1;PMS_P2;Temp;Humidity;BMP_temperature;BMP_pressure;BME280_temperature;BME280_humidity;BME280_pressure;Samples;Min_cycle;Max_cycle;Signal;HPM_P1;HPM_P2
2023/04/17 00:01:36;;;;;;;17.17;12.50;;;8.10;99.90;;;;;;5034068;28;20255;-81
2023/04/17 00:04:02;;;;;;;17.33;12.13;;;8.10;99.90;;;;;;5034070;28;20262;-82
2023/04/17 00:06:28;;;;;;;18.03;12.33;;;8.10;99.90;;;;;;5050447;28;20167;-81
2023/04/17 00:08:54;;;;;;;21.23;11.70;;;8.20;99.90;;;;;;5034765;28;20189;-81
2023/04/17 00:11:20;;;;;;;17.27;11.70;;;8.10;99.90;;;;;;5050056;28;20170;-81
2023/04/17 00:13:46;;;;;;;16.27;11.60;;;8.10;99.90;;;;;;5033695;28;20173;-81
2023/04/17 00:16:12;;;;;;;19.20;13.17;;;8.10;99.90;;;;;;5033442;28;20640;-81
2023/04/17 00:18:38;;;;;;;19.50;13.70;;;8.10;99.90;;;;;;5033660;28;20766;-81
2023/04/17 00:21:04;;;;;;;20.23;14.07;;;8.10;99.90;;;;;;5033110;28;20178;-81
2023/04/17 00:23:30;;;;;;;20.70;14.03;;;8.10;99.90;;;;;;5034744;28;20207;-82
2023/04/17 00:25:55;;;;;;;18.30;13.90;;;8.10;99.90;;;;;;5050217;28;20208;-81
2023/04/17 00:28:21;;;;;;;18.43;13.67;;;8.20;99.90;;;;;;5033110;28;20659;-81
2023/04/17 00:30:47;;;;;;;18.97;13.57;;;8.20;99.90;;;;;;5033406;28;20188;-82
2023/04/17 00:33:12;;;;;;;20.17;13.93;;;8.20;99.90;;;;;;5034722;28;20166;-82
2023/04/17 00:35:38;;;;;;;20.70;14.27;;;8.20;99.90;;;;;;5034473;28;20259;-82
2023/04/17 00:38:03;;;;;;;16.77;12.73;;;8.20;99.90;;;;;;5034484;28;20600;-81
2023/04/17 00:40:30;;;;;;;18.20;12.67;;;8.20;99.90;;;;;;5034103;28;20215;-81
2023/04/17 00:43:02;;;;;;;18.63;13.70;;;8.20;99.90;;;;;;5034773;28;20697;-81
2023/04/17 00:45:29;;;;;;;17.33;13.10;;;8.10;99.90;;;;;;5032853;28;20251;-82
2023/04/17 00:47:57;;;;;;;20.83;13.40;;;8.10;99.90;;;;;;5034335;28;20169;-81
2023/04/17 00:50:23;;;;;;;18.33;14.03;;;8.10;99.90;;;;;;5033997;28;20193;-82
2023/04/17 00:52:49;;;;;;;18.63;13.43;;;8.10;99.90;;;;;;5034004;28;20172;-81
2023/04/17 00:55:15;;;;;;;19.87;14.17;;;8.10;99.90;;;;;;5034150;28;20181;-81
2023/04/17 00:57:43;;;;;;;18.77;13.43;;;8.10;99.90;;;;;;5034115;28;20228;-81
2023/04/17 01:00:09;;;;;;;17.87;12.97;;;8.10;99.90;;;;;;5033811;28;20209;-81
2023/04/17 01:02:35;;;;;;;18.70;13.40;;;8.10;99.90;;;;;;5032837;28;20186;-82
2023/04/17 01:05:00;;;;;;;32.43;13.37;;;8.10;99.90;;;;;;5033888;28;20201;-81
2023/04/17 01:07:26;;;;;;;17.17;12.57;;;8.10;99.90;;;;;;5034036;28;20174;-81
2023/04/17 01:09:52;;;;;;;18.73;13.77;;;8.00;99.90;;;;;;5032916;28;20201;-82
2023/04/17 01:12:23;;;;;;;17.77;13.13;;;7.90;99.90;;;;;;5032631;28;20172;-82
2023/04/17 01:14:52;;;;;;;20.77;14.13;;;7.90;99.90;;;;;;5034042;28;20177;-82
2023/04/17 01:17:18;;;;;;;20.27;14.10;;;7.90;99.90;;;;;;5034044;28;20236;-81
2023/04/17 01:19:44;;;;;;;19.67;13.87;;;7.90;99.90;;;;;;5032258;28;20335;-82
2023/04/17 01:22:10;;;;;;;18.97;13.63;;;7.90;99.90;;;;;;5032459;28;20177;-81
2023/04/17 01:24:36;;;;;;;19.17;13.23;;;7.90;99.90;;;;;;5033471;28;20249;-81
2023/04/17 01:27:02;;;;;;;19.17;14.07;;;7.90;99.90;;;;;;5032266;28;20181;-81
2023/04/17 01:29:28;;;;;;;20.40;13.57;;;7.90;99.90;;;;;;5033634;28;20194;-81
2023/04/17 01:31:54;;;;;;;19.40;14.17;;;8.00;99.90;;;;;;5033557;28;20178;-81
2023/04/17 01:34:19;;;;;;;18.67;13.27;;;8.00;99.90;;;;;;5033506;28;20659;-81
2023/04/17 01:36:45;;;;;;;18.30;13.63;;;8.00;99.90;;;;;;5032134;28;20182;-82
2023/04/17 01:39:11;;;;;;;19.57;14.00;;;8.00;99.90;;;;;;5032972;28;20228;-80
2023/04/17 01:41:36;;;;;;;17.53;12.97;;;8.00;99.90;;;;;;5032031;28;20223;-81
2023/04/17 01:44:02;;;;;;;17.27;12.67;;;8.00;99.90;;;;;;5031807;28;20648;-81
2023/04/17 01:46:28;;;;;;;17.60;12.50;;;8.00;99.90;;;;;;5032181;28;20198;-81
2023/04/17 01:48:53;;;;;;;15.17;11.43;;;8.00;99.90;;;;;;5031853;28;20205;-81
2023/04/17 01:51:19;;;;;;;20.00;11.67;;;8.00;99.90;;;;;;5031780;28;20183;-81
2023/04/17 01:53:44;;;;;;;15.97;11.97;;;8.00;99.90;;;;;;5032015;28;20203;-81
2023/04/17 01:56:12;;;;;;;17.53;11.33;;;7.90;99.90;;;;;;5032161;28;20176;-81
2023/04/17 01:58:38;;;;;;;15.37;11.93;;;7.90;99.90;;;;;;5031992;28;20730;-81
2023/04/17 02:01:04;;;;;;;15.33;11.57;;;7.90;99.90;;;;;;5031565;28;20185;-81
2023/04/17 02:03:30;;;;;;;14.53;11.03;;;7.90;99.90;;;;;;5031708;28;20652;-81
2023/04/17 02:05:56;;;;;;;15.10;11.70;;;7.90;99.90;;;;;;5033062;28;20219;-81
2023/04/17 02:08:22;;;;;;;16.57;11.20;;;7.80;99.90;;;;;;5031763;28;20255;-81
2023/04/17 02:10:48;;;;;;;17.87;12.27;;;7.80;99.90;;;;;;5031941;28;20639;-81
2023/04/17 02:13:13;;;;;;;17.47;11.33;;;7.80;99.90;;;;;;5033103;28;20165;-81
2023/04/17 02:15:39;;;;;;;13.87;10.47;;;7.80;99.90;;;;;;5032977;28;20175;-81
2023/04/17 02:18:05;;;;;;;15.93;11.40;;;7.80;99.90;;;;;;5032707;28;20180;-81
2023/04/17 02:20:35;;;;;;;15.27;11.13;;;7.70;99.90;;;;;;5031348;28;20232;-80
2023/04/17 02:23:02;;;;;;;16.33;11.80;;;7.70;99.90;;;;;;5032620;28;20205;-81
2023/04/17 02:25:27;;;;;;;14.93;11.23;;;7.70;99.90;;;;;;5031382;28;20675;-81
2023/04/17 02:27:55;;;;;;;16.37;11.33;;;7.70;99.90;;;;;;5031649;28;20184;-81
2023/04/17 02:30:24;;;;;;;14.23;10.77;;;7.70;99.90;;;;;;5032709;28;20192;-81
2023/04/17 02:32:51;;;;;;;15.20;11.00;;;7.80;99.90;;;;;;5032354;28;20172;-81
2023/04/17 02:35:18;;;;;;;15.33;10.37;;;7.70;99.90;;;;;;5031311;28;20188;-81
2023/04/17 02:37:44;;;;;;;15.03;10.57;;;7.80;99.90;;;;;;5032761;28;20203;-81
2023/04/17 02:40:10;;;;;;;13.63;10.37;;;7.80;99.90;;;;;;5032091;28;20693;-81
2023/04/17 02:42:35;;;;;;;14.73;10.80;;;7.80;99.90;;;;;;5032935;28;20261;-81
2023/04/17 02:45:01;;;;;;;14.47;10.40;;;7.80;99.90;;;;;;5031546;28;20200;-81
2023/04/17 02:47:27;;;;;;;13.17;9.83;;;7.80;99.90;;;;;;5031197;28;20206;-81
2023/04/17 02:49:54;;;;;;;14.27;10.23;;;7.80;99.90;;;;;;5031211;28;20199;-81
2023/04/17 02:52:20;;;;;;;14.80;10.63;;;7.80;99.90;;;;;;5032707;28;20648;-81
2023/04/17 02:54:45;;;;;;;15.10;10.53;;;7.90;99.90;;;;;;5030998;28;20186;-81
2023/04/17 02:57:11;;;;;;;17.57;10.57;;;7.90;99.90;;;;;;5032880;28;20184;-81
2023/04/17 02:59:36;;;;;;;14.27;10.37;;;7.90;99.90;;;;;;5031074;28;20200;-79
2023/04/17 03:02:03;;;;;;;15.50;10.30;;;7.90;99.90;;;;;;5031211;28;20185;-81
2023/04/17 03:04:28;;;;;;;13.87;10.17;;;7.90;99.90;;;;;;5032459;28;20367;-81
2023/04/17 03:06:54;;;;;;;15.93;10.63;;;7.90;99.90;;;;;;5032363;28;20241;-81
2023/04/17 03:09:21;;;;;;;12.63;9.83;;;7.90;99.90;;;;;;5032200;28;20195;-82
2023/04/17 03:11:47;;;;;;;15.43;10.60;;;8.00;99.90;;;;;;5032781;28;20185;-81
2023/04/17 03:14:14;;;;;;;13.77;9.83;;;8.00;99.90;;;;;;5031332;28;20195;-81
2023/04/17 03:16:39;;;;;;;14.43;10.43;;;8.00;99.90;;;;;;5032210;28;20214;-81
2023/04/17 03:19:05;;;;;;;14.03;10.30;;;8.00;99.90;;;;;;5032383;28;20191;-81
2023/04/17 03:21:31;;;;;;;15.17;10.73;;;8.00;99.90;;;;;;5031784;28;20169;-81
2023/04/17 03:23:56;;;;;;;14.20;10.63;;;8.00;99.90;;;;;;5031046;28;20167;-81
2023/04/17 03:26:22;;;;;;;14.03;10.00;;;8.00;99.90;;;;;;5031000;28;20208;-81
2023/04/17 03:28:47;;;;;;;12.60;9.57;;;8.00;99.90;;;;;;5031100;28;20189;-81
2023/04/17 03:31:13;;;;;;;14.60;10.10;;;8.00;99.90;;;;;;5032548;28;20790;-81
2023/04/17 03:33:39;;;;;;;14.87;10.10;;;8.10;99.90;;;;;;5035126;28;20583;-81
2023/04/17 03:36:05;;;;;;;13.50;10.13;;;8.10;99.90;;;;;;5034402;28;20177;-81
2023/04/17 03:38:32;;;;;;;12.97;10.50;;;8.10;99.90;;;;;;5034592;28;20197;-82
2023/04/17 03:40:58;;;;;;;14.23;10.33;;;8.10;99.90;;;;;;5034483;28;20233;-81
2023/04/17 03:43:23;;;;;;;12.77;10.07;;;8.00;99.90;;;;;;5034759;28;20182;-81
2023/04/17 03:45:49;;;;;;;14.43;10.23;;;8.10;99.90;;;;;;5034180;28;20200;-81
2023/04/17 03:48:15;;;;;;;13.00;9.77;;;8.10;99.90;;;;;;5034134;28;20178;-81
2023/04/17 03:50:40;;;;;;;15.63;9.83;;;8.00;99.90;;;;;;5034355;28;20259;-81
2023/04/17 03:53:06;;;;;;;15.07;11.27;;;8.00;99.90;;;;;;5034067;28;20174;-81
2023/04/17 03:55:31;;;;;;;16.87;10.97;;;8.00;99.90;;;;;;5035494;28;20181;-81
2023/04/17 03:57:57;;;;;;;15.17;11.43;;;8.00;99.90;;;;;;5034136;28;20268;-81
2023/04/17 04:00:23;;;;;;;15.60;11.37;;;7.90;99.90;;;;;;5035259;28;20202;-81
2023/04/17 04:02:49;;;;;;;16.20;10.87;;;7.90;99.90;;;;;;5035254;28;20167;-82
2023/04/17 04:05:15;;;;;;;15.47;11.27;;;7.90;99.90;;;;;;5033667;28;20203;-81
2023/04/17 04:07:40;;;;;;;16.77;11.40;;;7.90;99.90;;;;;;5034090;28;20170;-81
2023/04/17 04:10:06;;;;;;;14.10;10.67;;;7.90;99.90;;;;;;5034188;28;20563;-81
2023/04/17 04:12:32;;;;;;;13.87;11.07;;;7.80;99.90;;;;;;5034070;28;20168;-81
2023/04/17 04:14:58;;;;;;;15.47;11.63;;;7.90;99.90;;;;;;5050526;28;20643;-81
2023/04/17 04:17:23;;;;;;;17.67;11.90;;;7.80;99.90;;;;;;5033779;28;20167;-80
2023/04/17 04:19:49;;;;;;;15.03;11.17;;;7.90;99.90;;;;;;5034318;28;20263;-81
2023/04/17 04:22:15;;;;;;;17.27;12.27;;;7.80;99.90;;;;;;5034776;28;20178;-81
2023/04/17 04:24:41;;;;;;;15.80;11.87;;;7.90;99.90;;;;;;5034865;28;20252;-81
2023/04/17 04:27:08;;;;;;;18.17;12.27;;;7.80;99.90;;;;;;5033709;28;20268;-81
2023/04/17 04:29:36;;;;;;;15.70;11.93;;;7.80;99.90;;;;;;5033366;28;20681;-80
2023/04/17 04:32:02;;;;;;;16.43;11.13;;;7.80;99.90;;;;;;5034845;28;20218;-81
2023/04/17 04:34:28;;;;;;;15.73;11.90;;;7.90;99.90;;;;;;5034520;28;20172;-81
2023/04/17 04:36:57;;;;;;;18.00;12.30;;;7.90;99.90;;;;;;5033261;28;20267;-81
2023/04/17 04:39:24;;;;;;;16.70;11.70;;;7.80;99.90;;;;;;5107159;22;20248;-82
2023/04/17 04:41:50;;;;;;;16.27;11.50;;;7.80;99.90;;;;;;5095853;28;20251;-81
2023/04/17 04:44:16;;;;;;;17.37;12.33;;;7.80;99.90;;;;;;5095503;28;20173;-83
2023/04/17 04:46:42;;;;;;;13.97;10.60;;;7.80;99.90;;;;;;5097128;28;20171;-82
2023/04/17 04:49:08;;;;;;;16.63;11.57;;;7.80;99.90;;;;;;5108678;28;20192;-84
2023/04/17 04:51:34;;;;;;;16.27;11.90;;;7.80;99.90;;;;;;5075462;28;20204;-82
2023/04/17 04:54:01;;;;;;;16.23;11.53;;;7.70;99.90;;;;;;5074014;28;20665;-82
2023/04/17 04:56:27;;;;;;;15.87;11.27;;;7.80;99.90;;;;;;5073500;28;20219;-83
2023/04/17 04:58:52;;;;;;;17.57;11.93;;;7.70;99.90;;;;;;5074428;28;20173;-84
2023/04/17 05:01:18;;;;;;;16.13;11.33;;;7.70;99.90;;;;;;5073113;28;20223;-80
2023/04/17 05:03:44;;;;;;;15.37;10.73;;;7.70;99.90;;;;;;5073440;28;20176;-82
2023/04/17 05:06:10;;;;;;;14.70;10.53;;;7.70;99.90;;;;;;5073961;28;20324;-82
2023/04/17 05:08:36;;;;;;;14.27;10.70;;;7.70;99.90;;;;;;5073220;28;20174;-83
2023/04/17 05:11:02;;;;;;;14.87;10.87;;;7.70;99.90;;;;;;5073549;28;20252;-84
2023/04/17 05:13:29;;;;;;;15.23;10.57;;;7.70;99.90;;;;;;5072132;28;20172;-83
2023/04/17 05:15:55;;;;;;;13.67;10.73;;;7.70;99.90;;;;;;5074667;28;20165;-83
2023/04/17 05:18:20;;;;;;;15.10;10.70;;;7.70;99.90;;;;;;5073644;28;20181;-84
2023/04/17 05:20:46;;;;;;;13.43;10.47;;;7.60;99.90;;;;;;5072674;28;20208;-82
2023/04/17 05:23:12;;;;;;;15.00;10.70;;;7.60;99.90;;;;;;5073773;28;20253;-83
2023/04/17 05:25:38;;;;;;;13.77;10.23;;;7.60;99.90;;;;;;5071756;28;20288;-79
2023/04/17 05:28:05;;;;;;;14.80;11.30;;;7.70;99.90;;;;;;5072360;28;20169;-79
2023/04/17 05:30:30;;;;;;;13.10;10.03;;;7.70;99.90;;;;;;5072904;28;20190;-78
2023/04/17 05:32:57;;;;;;;11.90;8.73;;;7.70;99.90;;;;;;5073015;28;20205;-78
2023/04/17 05:35:23;;;;;;;12.17;9.10;;;7.90;99.90;;;;;;5071355;28;20647;-78
2023/04/17 05:37:48;;;;;;;10.53;8.13;;;8.00;99.90;;;;;;5073102;28;20185;-78
2023/04/17 05:40:14;;;;;;;11.33;8.37;;;8.00;99.90;;;;;;5085110;28;20215;-82
2023/04/17 05:42:39;;;;;;;11.63;9.03;;;8.00;99.90;;;;;;5092987;28;20257;-83
2023/04/17 05:45:05;;;;;;;12.43;8.87;;;8.00;99.90;;;;;;5093227;28;20230;-80
2023/04/17 05:47:31;;;;;;;13.03;9.17;;;7.90;99.90;;;;;;5092424;28;20617;-80
2023/04/17 05:49:57;;;;;;;12.60;8.40;;;7.90;99.90;;;;;;5092558;28;20195;-78
2023/04/17 05:52:23;;;;;;;12.70;8.03;;;8.00;99.90;;;;;;5093751;28;20172;-80
2023/04/17 05:54:49;;;;;;;11.33;8.73;;;8.00;99.90;;;;;;5094331;28;20199;-80
2023/04/17 05:57:15;;;;;;;10.43;7.70;;;8.10;99.90;;;;;;5093552;28;20185;-81
2023/04/17 05:59:42;;;;;;;11.20;8.10;;;8.10;99.90;;;;;;5094614;28;20190;-80
2023/04/17 06:02:07;;;;;;;9.93;8.23;;;8.20;99.90;;;;;;5093907;28;20178;-81
2023/04/17 06:04:33;;;;;;;10.63;8.13;;;8.30;99.90;;;;;;5093061;28;20583;-81
2023/04/17 06:07:01;;;;;;;9.73;7.70;;;8.40;99.90;;;;;;5093781;28;20232;-82
2023/04/17 06:09:27;;;;;;;8.77;7.07;;;8.50;99.90;;;;;;5094536;28;20189;-81
2023/04/17 06:11:52;;;;;;;10.60;8.00;;;8.50;99.90;;;;;;5093577;28;20180;-80
2023/04/17 06:14:18;;;;;;;9.90;7.20;;;8.50;99.90;;;;;;5096005;28;20223;-80
2023/04/17 06:16:43;;;;;;;8.83;6.53;;;8.60;99.90;;;;;;5095721;28;20165;-81
2023/04/17 06:19:09;;;;;;;9.20;6.60;;;8.60;99.90;;;;;;5094796;28;20222;-80
2023/04/17 06:21:35;;;;;;;8.77;6.47;;;8.60;99.90;;;;;;5092857;28;20164;-80
2023/04/17 06:24:01;;;;;;;9.03;6.50;;;8.60;99.90;;;;;;5093976;28;20179;-81
2023/04/17 06:26:26;;;;;;;8.87;6.43;;;8.50;99.90;;;;;;5093881;28;20207;-81
2023/04/17 06:28:52;;;;;;;7.70;6.53;;;8.60;99.90;;;;;;5094103;28;20169;-81
2023/04/17 06:31:17;;;;;;;8.73;6.47;;;8.60;99.90;;;;;;5095632;28;20233;-80
2023/04/17 06:33:44;;;;;;;6.60;5.30;;;8.70;99.90;;;;;;5095449;28;20168;-80
2023/04/17 06:36:09;;;;;;;6.30;5.07;;;8.70;99.90;;;;;;5095851;28;20165;-81
2023/04/17 06:38:35;;;;;;;7.43;5.53;;;8.70;99.90;;;;;;5095971;28;20552;-80
2023/04/17 06:41:01;;;;;;;7.43;5.40;;;8.80;99.90;;;;;;5095537;28;20255;-80
2023/04/17 06:43:26;;;;;;;6.63;5.20;;;8.70;99.90;;;;;;5094344;28;20232;-80
2023/04/17 06:45:52;;;;;;;5.83;5.07;;;8.60;99.90;;;;;;5096103;28;20215;-80
2023/04/17 06:48:17;;;;;;;6.53;5.07;;;8.60;52.80;;;;;;5094213;28;20166;-81
2023/04/17 06:50:43;;;;;;;7.90;5.60;;;8.50;96.60;;;;;;5093392;28;20185;-81
2023/04/17 06:53:08;;;;;;;6.70;5.67;;;8.60;99.90;;;;;;5095620;28;20302;-78
2023/04/17 06:55:34;;;;;;;8.37;6.17;;;8.70;99.90;;;;;;5093252;28;20177;-80
2023/04/17 06:58:00;;;;;;;6.80;5.60;;;8.80;99.90;;;;;;5093596;28;20228;-80
2023/04/17 07:00:25;;;;;;;5.83;5.23;;;8.80;99.90;;;;;;5092752;28;20284;-81
2023/04/17 07:02:51;;;;;;;7.60;5.30;;;8.90;99.90;;;;;;5094158;28;20178;-80
2023/04/17 07:05:16;;;;;;;5.70;4.97;;;9.00;99.90;;;;;;5093722;28;20210;-80
2023/04/17 07:07:42;;;;;;;6.23;4.63;;;9.10;99.90;;;;;;5093420;28;20170;-82
2023/04/17 07:10:07;;;;;;;5.40;4.60;;;9.10;99.90;;;;;;5097966;28;20197;-80
2023/04/17 07:12:33;;;;;;;6.67;4.60;;;9.20;1.00;;;;;;5099506;28;20219;-80
2023/04/17 07:14:59;;;;;;;6.10;4.97;;;9.20;1.00;;;;;;5100508;28;20181;-81
2023/04/17 07:17:26;;;;;;;6.20;4.70;;;9.10;7.70;;;;;;5100547;28;20177;-81
2023/04/17 07:19:51;;;;;;;5.93;5.13;;;9.30;99.90;;;;;;5097893;28;20214;-81
2023/04/17 07:22:17;;;;;;;6.47;4.83;;;9.40;99.90;;;;;;5098378;28;20237;-81
2023/04/17 07:24:43;;;;;;;6.30;5.10;;;9.50;27.80;;;;;;5098841;28;20277;-80
2023/04/17 07:27:08;;;;;;;6.97;5.03;;;9.50;1.00;;;;;;5098370;28;20203;-83
2023/04/17 07:29:34;;;;;;;8.13;6.20;;;9.60;31.00;;;;;;5098778;28;20289;-80
2023/04/17 07:32:01;;;;;;;7.43;5.53;;;9.70;1.00;;;;;;5099429;28;20262;-80
2023/04/17 07:34:30;;;;;;;7.13;5.03;;;9.60;1.00;;;;;;5098136;28;20176;-81
2023/04/17 07:36:55;;;;;;;6.20;5.60;;;9.60;11.40;;;;;;5100444;28;20174;-80
2023/04/17 07:39:21;;;;;;;7.20;5.50;;;9.40;1.00;;;;;;5099542;28;20206;-82
2023/04/17 07:41:47;;;;;;;8.27;6.70;;;9.30;1.00;;;;;;5098928;28;20170;-80
2023/04/17 07:44:13;;;;;;;6.93;6.03;;;9.20;1.00;;;;;;5100137;28;20175;-80
2023/04/17 07:46:40;;;;;;;7.10;6.00;;;9.10;1.00;;;;;;5098527;28;20175;-80
2023/04/17 07:49:05;;;;;;;6.10;5.50;;;9.00;5.40;;;;;;5098577;28;20734;-82
2023/04/17 07:51:31;;;;;;;7.13;6.00;;;9.10;99.90;;;;;;5098689;28;20171;-80
2023/04/17 07:53:57;;;;;;;7.00;6.10;;;9.10;22.70;;;;;;5098426;28;20562;-80
2023/04/17 07:56:23;;;;;;;7.77;5.40;;;9.10;99.90;;;;;;5096388;28;20175;-81
2023/04/17 07:58:50;;;;;;;7.83;5.90;;;9.10;89.80;;;;;;5095871;28;20171;-81
2023/04/17 08:01:16;;;;;;;7.73;5.83;;;8.90;98.90;;;;;;5093854;28;20178;-80
2023/04/17 08:03:43;;;;;;;7.50;6.07;;;8.80;99.90;;;;;;5093836;28;20666;-81
2023/04/17 08:06:09;;;;;;;6.40;5.80;;;8.80;99.90;;;;;;5095241;28;20685;-81
2023/04/17 08:08:35;;;;;;;7.77;5.83;;;8.70;99.90;;;;;;5093764;28;20168;-81
2023/04/17 08:11:00;;;;;;;7.53;6.07;;;8.70;99.90;;;;;;5093709;28;20195;-81
2023/04/17 08:13:28;;;;;;;8.47;6.63;;;8.70;99.90;;;;;;5093802;28;20165;-80
2023/04/17 08:15:53;;;;;;;8.03;6.30;;;8.70;99.90;;;;;;5094838;28;20263;-81
2023/04/17 08:18:19;;;;;;;7.37;6.33;;;8.70;99.90;;;;;;5093482;28;20210;-81
2023/04/17 08:20:45;;;;;;;8.40;6.77;;;8.70;99.90;;;;;;5093543;28;20219;-81
2023/04/17 08:23:10;;;;;;;7.80;6.60;;;8.80;99.90;;;;;;5094603;28;20183;-80
2023/04/17 08:25:36;;;;;;;8.47;6.47;;;8.80;99.90;;;;;;5093612;28;20213;-79
2023/04/17 08:28:02;;;;;;;7.67;6.40;;;8.80;99.90;;;;;;5094839;28;20170;-80
2023/04/17 08:30:28;;;;;;;9.20;6.70;;;8.80;99.90;;;;;;5094752;28;20683;-81
2023/04/17 08:32:54;;;;;;;7.17;6.17;;;8.90;99.90;;;;;;5093109;28;20163;-82
2023/04/17 08:35:19;;;;;;;7.60;5.93;;;9.10;99.90;;;;;;5094302;28;20177;-78
2023/04/17 08:37:45;;;;;;;7.23;6.03;;;9.00;99.90;;;;;;5093067;28;20239;-83
2023/04/17 08:40:12;;;;;;;7.20;6.00;;;9.10;99.90;;;;;;5095405;28;20217;-79
2023/04/17 08:42:42;;;;;;;6.53;5.93;;;9.20;99.90;;;;;;5094090;28;20265;-83
2023/04/17 08:45:10;;;;;;;7.10;6.03;;;9.20;99.90;;;;;;5095011;28;20277;-83
2023/04/17 08:47:38;;;;;;;7.00;5.60;;;9.40;42.30;;;;;;5095633;28;20197;-85
2023/04/17 08:50:10;;;;;;;5.60;5.07;;;9.40;1.00;;;;;;5093070;28;20194;-83
2023/04/17 08:52:45;;;;;;;6.33;5.57;;;9.60;10.70;;;;;;5094623;28;20191;-83
2023/04/17 08:55:12;;;;;;;6.23;5.03;;;9.70;99.90;;;;;;5095008;28;20179;-83
2023/04/17 08:57:54;;;;;;;5.63;4.50;;;9.90;1.00;;;;;;5094261;28;20235;-84
2023/04/17 09:00:40;;;;;;;5.20;4.60;;;10.00;1.00;;;;;;5096144;28;20205;-83
2023/04/17 09:03:10;;;;;;;6.00;4.60;;;10.20;1.00;;;;;;5093997;28;20171;-80
2023/04/17 09:05:38;;;;;;;5.63;4.83;;;10.00;1.00;;;;;;5089219;28;20241;-81
2023/04/17 09:08:22;;;;;;;4.97;4.47;;;10.00;1.00;;;;;;5085517;28;20530;-81
2023/04/17 09:10:54;;;;;;;5.57;4.63;;;10.00;1.00;;;;;;5087896;28;20223;-80
2023/04/17 09:13:23;;;;;;;6.47;4.73;;;10.10;1.00;;;;;;5096032;28;20176;-79
2023/04/17 09:16:11;;;;;;;6.47;4.70;;;10.00;99.90;;;;;;5093637;28;20660;-79
2023/04/17 09:18:38;;;;;;;7.90;6.47;;;10.00;99.90;;;;;;5095812;28;20180;-82
2023/04/17 09:21:06;;;;;;;5.40;4.90;;;10.10;1.00;;;;;;5093904;28;20191;-82
2023/04/17 09:24:04;;;;;;;6.20;5.17;;;10.10;99.90;;;;;;5096970;28;20183;-81
2023/04/17 09:26:32;;;;;;;5.83;4.80;;;10.20;1.00;;;;;;5113015;28;20198;-82
2023/04/17 09:29:10;;;;;;;6.23;5.60;;;10.20;99.90;;;;;;5102368;28;20256;-81
2023/04/17 09:31:37;;;;;;;7.30;5.90;;;10.20;29.90;;;;;;5095210;28;20194;-82
2023/04/17 09:34:14;;;;;;;9.33;7.17;;;10.00;99.90;;;;;;5094078;28;20206;-81
2023/04/17 09:36:42;;;;;;;6.53;5.60;;;9.90;1.00;;;;;;5075089;28;20189;-81
2023/04/17 09:39:23;;;;;;;6.70;6.00;;;9.90;1.00;;;;;;5084017;28;20298;-80
2023/04/17 09:41:49;;;;;;;6.00;4.70;;;9.90;1.00;;;;;;5096140;28;20164;-81
2023/04/17 09:44:26;;;;;;;6.00;5.00;;;10.00;99.90;;;;;;5096682;28;20178;-80
2023/04/17 09:46:53;;;;;;;6.73;5.27;;;9.90;99.90;;;;;;5093715;28;20216;-82
2023/04/17 09:49:41;;;;;;;5.70;5.00;;;9.90;1.00;;;;;;5093119;28;20291;-83
2023/04/17 09:52:07;;;;;;;7.67;5.40;;;9.90;1.00;;;;;;5094907;28;20229;-83
2023/04/17 09:54:36;;;;;;;5.23;4.73;;;10.00;1.00;;;;;;5094680;28;20537;-82
2023/04/17 09:57:03;;;;;;;8.73;6.13;;;10.00;1.00;;;;;;5095862;28;20191;-79
2023/04/17 09:59:30;;;;;;;7.60;5.57;;;10.10;1.00;;;;;;5095636;28;20191;-81
2023/04/17 10:01:56;;;;;;;7.77;4.43;;;10.40;1.00;;;;;;5095137;28;20255;-82
2023/04/17 10:04:22;;;;;;;5.23;4.40;;;10.50;1.00;;;;;;5096604;28;20218;-82
2023/04/17 10:06:48;;;;;;;5.47;4.97;;;10.40;1.00;;;;;;5094892;28;20168;-82
2023/04/17 10:09:14;;;;;;;6.90;5.20;;;10.40;1.00;;;;;;5095696;28;20572;-82
2023/04/17 10:11:43;;;;;;;6.17;5.50;;;10.20;4.30;;;;;;5097114;28;20172;-82
2023/04/17 10:14:18;;;;;;;6.07;4.77;;;10.00;73.90;;;;;;5097450;28;20233;-82
2023/04/17 10:16:45;;;;;;;6.23;5.17;;;9.90;1.00;;;;;;5095589;28;20170;-82
2023/04/17 10:19:34;;;;;;;6.27;5.13;;;9.90;99.90;;;;;;5098133;28;20271;-82
2023/04/17 10:22:16;;;;;;;6.03;5.07;;;10.00;1.00;;;;;;5096731;28;20229;-82
2023/04/17 10:24:50;;;;;;;6.30;5.20;;;10.00;99.90;;;;;;5097299;28;20232;-82
2023/04/17 10:27:25;;;;;;;6.07;5.10;;;10.20;1.00;;;;;;5096577;28;20164;-82
2023/04/17 10:29:53;;;;;;;5.97;5.20;;;10.50;99.90;;;;;;5096770;28;20186;-82
2023/04/17 10:32:20;;;;;;;6.83;5.23;;;10.60;99.90;;;;;;5097524;28;20171;-83
2023/04/17 10:34:45;;;;;;;6.67;5.30;;;10.90;1.00;;;;;;5098732;28;20201;-82
2023/04/17 10:37:14;;;;;;;6.70;4.83;;;11.00;99.90;;;;;;5095893;28;20187;-82
2023/04/17 10:39:59;;;;;;;6.03;5.27;;;11.20;99.90;;;;;;5126094;22;20301;-81
2023/04/17 10:42:28;;;;;;;7.13;5.40;;;11.60;99.90;;;;;;5139351;27;20230;-82
2023/04/17 10:45:00;;;;;;;6.60;5.13;;;11.90;1.00;;;;;;5132625;27;20195;-83
2023/04/17 10:47:35;;;;;;;5.83;4.87;;;11.80;99.90;;;;;;5129626;27;20558;-82
2023/04/17 10:50:02;;;;;;;5.70;5.00;;;11.60;16.10;;;;;;5139040;27;20198;-82
2023/04/17 10:52:34;;;;;;;6.00;5.03;;;11.60;1.00;;;;;;5136493;27;20171;-82
2023/04/17 10:55:13;;;;;;;5.60;4.50;;;11.60;99.90;;;;;;5132604;27;20185;-82
2023/04/17 10:57:58;;;;;;;5.90;4.90;;;11.80;99.90;;;;;;5129908;27;20167;-83
2023/04/17 11:00:32;;;;;;;6.00;5.00;;;12.00;1.00;;;;;;5133649;27;20223;-82
2023/04/17 11:02:59;;;;;;;5.40;4.90;;;12.00;1.00;;;;;;5122383;27;20203;-81
2023/04/17 11:05:25;;;;;;;5.67;4.60;;;12.10;99.90;;;;;;5118965;28;20618;-81
2023/04/17 11:07:51;;;;;;;5.13;4.43;;;12.20;1.00;;;;;;5121431;27;20180;-80
2023/04/17 11:10:20;;;;;;;5.53;4.80;;;12.30;99.90;;;;;;5130485;27;20188;-81
2023/04/17 11:12:55;;;;;;;5.13;4.30;;;12.40;99.90;;;;;;5118132;28;20171;-82
2023/04/17 11:15:27;;;;;;;5.53;4.50;;;12.50;99.90;;;;;;5128159;27;20170;-82
2023/04/17 11:17:54;;;;;;;6.67;4.40;;;12.70;94.60;;;;;;5136795;27;20194;-81
2023/04/17 11:20:22;;;;;;;5.83;4.40;;;12.80;1.00;;;;;;5137738;27;20248;-81
2023/04/17 11:22:48;;;;;;;4.90;4.10;;;13.00;99.90;;;;;;5137755;27;20657;-81
2023/04/17 11:25:30;;;;;;;5.03;4.30;;;13.30;1.00;;;;;;5129389;27;20248;-82
2023/04/17 11:28:04;;;;;;;5.03;3.80;;;13.20;1.00;;;;;;5134000;27;20290;-81
2023/04/17 11:30:32;;;;;;;4.23;3.83;;;13.20;99.90;;;;;;5129572;27;20194;-80
2023/04/17 11:33:03;;;;;;;5.27;4.13;;;13.10;99.90;;;;;;5143816;27;20758;-80
2023/04/17 11:35:39;;;;;;;4.00;3.53;;;13.00;99.90;;;;;;5142802;27;20178;-80
2023/04/17 11:38:19;;;;;;;4.40;4.00;;;13.30;99.90;;;;;;5142511;27;20175;-80
2023/04/17 11:40:46;;;;;;;4.80;3.80;;;13.80;99.90;;;;;;5143662;27;20210;-80
2023/04/17 11:43:12;;;;;;;5.53;4.00;;;13.90;99.90;;;;;;5141860;27;20325;-82
2023/04/17 11:45:41;;;;;;;6.40;3.60;;;14.20;1.00;;;;;;5154413;27;20206;-82
2023/04/17 11:48:09;;;;;;;4.37;3.53;;;14.10;1.00;;;;;;5126544;27;20171;-81
2023/04/17 11:50:35;;;;;;;4.97;3.40;;;14.20;1.00;;;;;;5127277;27;20270;-82
2023/04/17 11:53:02;;;;;;;3.90;3.23;;;14.40;1.00;;;;;;5135042;27;20290;-81
2023/04/17 11:55:33;;;;;;;3.73;3.43;;;14.50;99.90;;;;;;5137107;27;20175;-81
2023/04/17 11:58:00;;;;;;;6.20;3.73;;;14.40;99.90;;;;;;5136863;27;20178;-81
2023/04/17 12:00:30;;;;;;;4.73;3.60;;;14.20;99.90;;;;;;5135310;27;20294;-82
2023/04/17 12:02:57;;;;;;;4.80;3.70;;;14.00;99.90;;;;;;5133363;27;20179;-81
2023/04/17 12:05:24;;;;;;;4.70;4.07;;;14.00;99.90;;;;;;5123103;27;20200;-81
2023/04/17 12:08:03;;;;;;;6.57;4.27;;;13.90;99.90;;;;;;5115461;28;20228;-82
2023/04/17 12:10:56;;;;;;;5.57;4.30;;;13.80;58.80;;;;;;5114809;28;20190;-81
2023/04/17 12:13:23;;;;;;;5.97;4.33;;;14.00;1.00;;;;;;5111636;28;20186;-81
2023/04/17 12:15:48;;;;;;;6.57;4.33;;;14.20;1.00;;;;;;5115748;27;20187;-80
2023/04/17 12:18:14;;;;;;;5.57;4.70;;;14.10;28.60;;;;;;5118679;28;20176;-78
2023/04/17 12:20:40;;;;;;;5.60;4.57;;;13.90;1.00;;;;;;5125389;27;20288;-79
2023/04/17 12:23:05;;;;;;;5.70;4.37;;;13.60;26.80;;;;;;5137201;27;20648;-80
2023/04/17 12:25:32;;;;;;;5.20;4.70;;;13.50;16.20;;;;;;5137593;27;20213;-80
2023/04/17 12:27:58;;;;;;;6.90;4.27;;;13.70;99.90;;;;;;5134257;27;20178;-81
2023/04/17 12:30:25;;;;;;;5.73;4.30;;;13.70;99.90;;;;;;5136736;27;20277;-81
2023/04/17 12:32:51;;;;;;;5.43;4.17;;;13.90;99.90;;;;;;5135629;27;20182;-81
2023/04/17 12:35:18;;;;;;;6.33;4.57;;;14.10;99.90;;;;;;5137373;27;20171;-81
2023/04/17 12:37:47;;;;;;;5.07;4.40;;;14.30;99.90;;;;;;5135121;27;20575;-81
2023/04/17 12:40:17;;;;;;;5.60;4.70;;;14.40;99.90;;;;;;5153174;27;20210;-81
2023/04/17 12:42:44;;;;;;;8.07;4.77;;;14.10;99.90;;;;;;5140888;27;20190;-81
2023/04/17 12:45:10;;;;;;;8.33;5.27;;;14.00;99.90;;;;;;5141643;27;20203;-81
2023/04/17 12:47:36;;;;;;;7.67;6.07;;;14.00;73.20;;;;;;5141587;27;20175;-81
2023/04/17 12:50:01;;;;;;;6.63;5.40;;;14.10;99.90;;;;;;5142473;27;20187;-82